Time;durP1;ratioP1;P1;durP2;ratioP2;P2;SDS_P1;SDS_P2;PMS_P1;PMS_P2;Temp;Humidity;BMP_temperature;BMP_pressure;BME280_temperature;BME280_humidity;BME280_pressure;Samples;Min_cycle;Max_cycle;Signal;HPM_P1;HPM_P2
2021/08/31 00:01:04;;;;;;;12.23;7.25;;;;;;;15.38;86.83;101705.88;5065648;28;20055;-82
2021/08/31 00:03:30;;;;;;;11.25;6.90;;;;;;;15.33;87.24;101700.44;5062237;28;20123;-82
2021/08/31 00:05:55;;;;;;;14.30;7.90;;;;;;;15.33;86.68;101705.81;5062509;28;20032;-83
2021/08/31 00:08:22;;;;;;;13.43;8.27;;;;;;;15.30;87.22;101700.94;5063236;28;20494;-82
2021/08/31 00:10:47;;;;;;;12.93;7.18;;;;;;;15.30;87.14;101709.03;5065056;28;20493;-82
2021/08/31 00:13:13;;;;;;;14.65;7.72;;;;;;;15.26;87.71;101707.94;5063040;28;20032;-83
2021/08/31 00:15:39;;;;;;;12.00;7.65;;;;;;;15.25;87.87;101717.06;5056926;28;20051;-83
2021/08/31 00:18:05;;;;;;;13.82;8.13;;;;;;;15.26;87.81;101702.53;5063046;28;20111;-81
2021/08/31 00:20:31;;;;;;;11.57;7.55;;;;;;;15.28;87.81;101707.69;5064242;28;20102;-83
2021/08/31 00:22:57;;;;;;;13.73;8.55;;;;;;;15.24;88.26;101712.75;5064062;28;20103;-83
2021/08/31 00:25:23;;;;;;;13.32;8.20;;;;;;;15.26;88.08;101718.72;5059530;28;20025;-83
2021/08/31 00:27:49;;;;;;;16.75;8.07;;;;;;;15.29;87.93;101702.00;5063384;28;20047;-82
2021/08/31 00:30:14;;;;;;;13.20;8.13;;;;;;;15.30;87.82;101710.94;5060444;28;20020;-82
2021/08/31 00:32:40;;;;;;;13.32;7.07;;;;;;;15.35;87.26;101703.69;5063755;28;20471;-82
2021/08/31 00:35:06;;;;;;;10.52;7.55;;;;;;;15.35;87.74;101697.47;5060719;28;20035;-82
2021/08/31 00:37:31;;;;;;;13.77;7.63;;;;;;;15.33;87.69;101699.63;5062122;28;20025;-82
2021/08/31 00:39:57;;;;;;;10.00;7.57;;;;;;;15.37;87.43;101696.13;5062526;28;20052;-83
2021/08/31 00:42:22;;;;;;;12.45;8.55;;;;;;;15.37;87.57;101695.31;5062811;28;20043;-82
2021/08/31 00:44:48;;;;;;;11.52;7.95;;;;;;;15.39;87.71;101699.38;5064561;28;20115;-82
2021/08/31 00:47:14;;;;;;;12.55;7.80;;;;;;;15.39;87.51;101702.09;5062978;28;20478;-82
2021/08/31 00:49:39;;;;;;;16.17;8.70;;;;;;;15.37;87.90;101706.94;5061602;28;20024;-84
2021/08/31 00:52:05;;;;;;;12.63;8.15;;;;;;;15.39;88.18;101699.38;5063243;28;20067;-83
2021/08/31 00:54:30;;;;;;;17.02;8.27;;;;;;;15.42;88.11;101700.75;5060584;28;20044;-82
2021/08/31 00:56:59;;;;;;;12.43;8.10;;;;;;;15.40;88.13;101698.31;5081787;28;20417;-83
2021/08/31 00:59:25;;;;;;;15.35;8.65;;;;;;;15.42;88.25;101688.06;5060814;28;20793;-83
2021/08/31 01:01:55;;;;;;;13.60;8.15;;;;;;;15.43;88.31;101694.28;5062676;28;20156;-83
2021/08/31 01:04:26;;;;;;;13.63;7.68;;;;;;;15.44;88.20;101690.53;5061332;28;20029;-82
2021/08/31 01:06:53;;;;;;;14.20;7.95;;;;;;;15.48;88.10;101693.53;5069447;28;20104;-83
2021/08/31 01:09:23;;;;;;;16.35;7.97;;;;;;;15.46;88.17;101695.69;5064856;28;20108;-82
2021/08/31 01:11:50;;;;;;;17.98;8.35;;;;;;;15.46;88.23;101692.97;5067402;28;20559;-82
2021/08/31 01:14:17;;;;;;;13.52;8.15;;;;;;;15.45;88.44;101696.75;5066448;28;20032;-82
2021/08/31 01:16:43;;;;;;;15.27;8.93;;;;;;;15.40;89.08;101697.50;5066345;28;20021;-81
2021/08/31 01:19:09;;;;;;;12.75;8.35;;;;;;;15.47;88.90;101705.41;5065132;28;20025;-82
2021/08/31 01:21:35;;;;;;;15.60;7.85;;;;;;;15.46;88.75;101703.78;5064278;28;20452;-83
2021/08/31 01:24:00;;;;;;;15.20;8.25;;;;;;;15.45;88.76;101696.75;5065261;28;20021;-82
2021/08/31 01:26:30;;;;;;;11.80;8.23;;;;;;;15.43;89.11;101702.38;5065368;28;20024;-82
2021/08/31 01:39:00;;;;;;;16.52;8.40;;;;;;;15.47;88.85;101695.41;5064977;28;20036;-83
2021/08/31 01:41:26;;;;;;;12.52;8.05;;;;;;;15.43;89.23;101696.97;5064767;28;20028;-82
2021/08/31 01:43:53;;;;;;;12.13;7.60;;;;;;;15.47;88.91;101700.00;5064090;28;20055;-82
2021/08/31 01:46:18;;;;;;;15.27;8.13;;;;;;;15.47;89.04;101700.00;5062243;28;20024;-82
2021/08/31 01:48:44;;;;;;;12.60;8.25;;;;;;;15.48;89.22;101698.94;5065170;28;20028;-83
2021/08/31 01:51:09;;;;;;;14.98;7.85;;;;;;;15.44;89.43;101701.34;5064511;28;20023;-83
2021/08/31 01:53:36;;;;;;;16.35;8.52;;;;;;;15.50;89.10;101703.00;5062592;28;20048;-82
2021/08/31 01:56:02;;;;;;;11.75;7.50;;;;;;;15.53;89.11;101707.06;5063894;28;20056;-81
2021/08/31 01:58:28;;;;;;;14.55;8.63;;;;;;;15.58;88.87;101712.50;5061016;28;20680;-82
2021/08/31 02:00:53;;;;;;;13.10;7.82;;;;;;;15.56;88.93;101714.66;5066402;28;20021;-82
2021/08/31 02:03:20;;;;;;;13.48;7.70;;;;;;;15.59;88.79;101703.38;5065314;28;20031;-82
2021/08/31 02:05:45;;;;;;;13.68;7.80;;;;;;;15.57;88.75;101700.06;5065882;28;20098;-83
2021/08/31 02:08:11;;;;;;;15.85;7.85;;;;;;;15.55;89.19;101697.63;5064526;28;20079;-84
2021/08/31 02:10:37;;;;;;;14.10;7.47;;;;;;;15.58;88.92;101699.00;5062681;28;20079;-83
2021/08/31 02:13:02;;;;;;;13.63;7.45;;;;;;;15.60;89.06;101699.59;5060231;28;20619;-82
2021/08/31 02:15:28;;;;;;;10.77;7.15;;;;;;;15.53;89.31;101698.97;5062593;28;20028;-82
2021/08/31 02:17:53;;;;;;;11.90;8.05;;;;;;;15.53;89.45;101698.97;5063828;28;20032;-82
2021/08/31 02:20:19;;;;;;;14.90;7.93;;;;;;;15.53;89.45;101699.78;5061885;28;20049;-82
2021/08/31 02:22:44;;;;;;;12.13;7.32;;;;;;;15.55;89.59;101694.13;5066797;28;20095;-82
2021/08/31 02:25:11;;;;;;;16.30;8.75;;;;;;;15.54;89.65;101696.00;5064043;28;20092;-83
2021/08/31 02:27:36;;;;;;;13.38;8.50;;;;;;;15.53;89.83;101693.56;5065241;28;20032;-83
2021/08/31 02:30:05;;;;;;;16.85;8.48;;;;;;;15.54;89.77;101689.78;5066434;28;20085;-82
2021/08/31 02:32:31;;;;;;;11.13;7.45;;;;;;;15.53;89.96;101686.28;5062672;28;20047;-82
2021/08/31 02:34:56;;;;;;;15.07;8.32;;;;;;;15.49;90.41;101687.06;5078611;28;20021;-82
2021/08/31 02:37:22;;;;;;;11.65;7.93;;;;;;;15.42;90.54;101692.66;5063887;28;20020;-82
2021/08/31 02:39:47;;;;;;;15.30;7.68;;;;;;;15.50;90.16;101694.09;5063890;28;20028;-82
2021/08/31 02:42:13;;;;;;;13.88;8.52;;;;;;;15.47;90.98;101683.81;5064763;28;20086;-82
2021/08/31 02:44:39;;;;;;;16.98;8.45;;;;;;;15.52;90.46;101695.47;5062718;28;20032;-82
2021/08/31 02:47:04;;;;;;;12.82;8.40;;;;;;;15.57;90.10;101695.50;5062063;28;20016;-82
2021/08/31 02:49:30;;;;;;;13.77;7.95;;;;;;;15.56;89.97;101693.03;5067394;28;20032;-82
2021/08/31 02:51:55;;;;;;;13.02;8.50;;;;;;;15.55;90.21;101699.53;5071707;28;20034;-83
2021/08/31 02:54:21;;;;;;;14.88;9.05;;;;;;;15.54;90.22;101696.00;5074192;28;20460;-82
2021/08/31 02:56:46;;;;;;;11.20;7.85;;;;;;;15.55;90.22;101703.03;5062828;28;20058;-82
2021/08/31 02:59:13;;;;;;;15.15;8.18;;;;;;;15.58;90.15;101690.91;5065119;28;20462;-83
2021/08/31 03:02:04;;;;;;;14.38;8.23;;;;;;;15.57;90.37;101697.38;5055663;28;20028;-83
2021/08/31 03:04:25;;;;;;;11.93;7.38;;;;;;;15.58;90.03;101696.31;5062480;28;20057;-81
2021/08/31 03:06:51;;;;;;;14.30;7.75;;;;;;;15.54;90.50;101704.13;5064651;28;20028;-81
2021/08/31 03:09:16;;;;;;;15.85;8.63;;;;;;;15.57;90.25;101700.88;5062781;28;20531;-81
2021/08/31 03:11:42;;;;;;;13.23;8.23;;;;;;;15.54;90.40;101695.19;5061630;28;20068;-81
2021/08/31 03:14:11;;;;;;;10.55;8.20;;;;;;;15.52;90.62;101700.03;5064665;28;20085;-82
2021/08/31 03:16:36;;;;;;;13.40;8.43;;;;;;;15.55;90.78;101704.94;5062014;28;20029;-82
2021/08/31 03:19:02;;;;;;;15.60;7.78;;;;;;;15.54;90.42;101700.59;5062895;28;20120;-83
2021/08/31 03:21:29;;;;;;;12.98;8.13;;;;;;;15.55;90.63;101702.22;5066032;28;20024;-83
2021/08/31 03:23:55;;;;;;;14.13;8.45;;;;;;;15.53;90.65;101698.97;5063917;28;20043;-83
2021/08/31 03:26:20;;;;;;;13.45;8.38;;;;;;;15.55;90.51;101702.22;5063703;28;20106;-83
2021/08/31 03:28:46;;;;;;;16.67;8.70;;;;;;;15.58;90.52;101704.41;5063004;28;20078;-82
2021/08/31 03:31:11;;;;;;;12.50;7.95;;;;;;;15.61;90.46;101698.50;5063672;28;20025;-83
2021/08/31 03:33:37;;;;;;;15.02;8.13;;;;;;;15.61;90.32;101702.03;5058759;28;20024;-83
2021/08/31 03:36:04;;;;;;;13.20;8.38;;;;;;;15.61;90.36;101706.63;5065744;28;20467;-82
2021/08/31 03:38:30;;;;;;;15.38;8.50;;;;;;;15.59;90.74;101706.88;5064490;28;20036;-82
2021/08/31 03:40:56;;;;;;;13.60;7.88;;;;;;;15.66;90.58;101707.50;5078670;28;20693;-82
2021/08/31 03:43:21;;;;;;;16.05;9.18;;;;;;;15.63;90.58;101704.50;5061624;28;20024;-82
2021/08/31 03:45:47;;;;;;;15.10;8.50;;;;;;;15.63;90.76;101709.91;5067384;28;20037;-82
2021/08/31 03:48:12;;;;;;;16.40;8.63;;;;;;;15.61;91.44;101717.41;5059572;28;20593;-82
2021/08/31 03:50:38;;;;;;;12.63;9.07;;;;;;;15.65;90.92;101710.44;5064133;28;20158;-83
2021/08/31 03:53:03;;;;;;;10.85;8.20;;;;;;;15.65;91.31;101713.16;5065287;28;20031;-82
2021/08/31 03:55:29;;;;;;;14.35;8.82;;;;;;;15.67;91.17;101713.72;5063205;28;20054;-82
2021/08/31 03:57:54;;;;;;;17.67;8.98;;;;;;;15.59;91.65;101724.97;5062237;28;20033;-81
2021/08/31 04:00:20;;;;;;;15.02;8.43;;;;;;;15.63;91.15;101718.81;5061061;28;20028;-82
2021/08/31 04:02:45;;;;;;;14.68;8.68;;;;;;;15.67;90.92;101722.63;5062847;28;20028;-82
2021/08/31 04:05:11;;;;;;;12.13;8.30;;;;;;;15.60;91.23;101724.72;5061632;28;21670;-83
2021/08/31 04:07:37;;;;;;;12.65;7.63;;;;;;;15.60;91.21;101716.59;5062258;28;20034;-82
2021/08/31 04:10:03;;;;;;;12.40;8.68;;;;;;;15.58;91.10;101724.13;5064443;28;20536;-82
2021/08/31 04:12:28;;;;;;;13.52;8.30;;;;;;;15.59;91.02;101728.50;5062259;28;20024;-82
2021/08/31 04:14:54;;;;;;;13.90;8.90;;;;;;;15.59;91.28;101730.38;5060014;28;20024;-83
2021/08/31 04:17:19;;;;;;;11.77;7.53;;;;;;;15.57;91.49;101724.38;5061680;28;20099;-82
2021/08/31 04:19:44;;;;;;;14.60;8.43;;;;;;;15.55;91.29;101724.66;5064500;28;20036;-83
2021/08/31 04:22:10;;;;;;;13.35;8.57;;;;;;;15.54;91.49;101730.31;5063725;28;20238;-82
2021/08/31 04:24:37;;;;;;;13.18;8.30;;;;;;;15.56;91.44;101730.88;5060745;28;20021;-82
2021/08/31 04:27:03;;;;;;;12.07;7.80;;;;;;;15.56;91.37;101736.25;5060213;28;20024;-82
2021/08/31 04:29:29;;;;;;;14.77;8.88;;;;;;;15.53;91.94;101731.38;5065696;28;20079;-82
2021/08/31 04:31:54;;;;;;;12.55;8.40;;;;;;;15.50;92.18;101732.72;5065891;28;20021;-83
2021/08/31 04:34:20;;;;;;;14.10;9.00;;;;;;;15.49;92.04;101733.78;5062386;28;20510;-84
2021/08/31 04:36:45;;;;;;;14.93;8.80;;;;;;;15.48;92.12;101742.16;5064665;28;20055;-84
2021/08/31 04:39:11;;;;;;;16.80;9.10;;;;;;;15.49;92.12;101738.38;5063017;28;20032;-83
2021/08/31 04:41:37;;;;;;;13.15;8.50;;;;;;;15.50;92.35;101735.41;5059737;28;20432;-84
2021/08/31 04:44:02;;;;;;;14.02;9.07;;;;;;;15.50;92.17;101731.91;5064980;28;20024;-83
2021/08/31 04:46:28;;;;;;;12.68;8.23;;;;;;;15.52;92.31;101729.75;5058685;28;20079;-83
2021/08/31 04:48:53;;;;;;;18.25;8.50;;;;;;;15.49;92.58;101731.09;5061503;28;20528;-83
2021/08/31 04:51:19;;;;;;;13.52;8.48;;;;;;;15.52;92.27;101733.28;5065258;28;20082;-83
2021/08/31 04:53:44;;;;;;;15.48;8.60;;;;;;;15.58;91.79;101737.63;5063101;28;20116;-83
2021/08/31 04:56:09;;;;;;;11.27;8.35;;;;;;;15.60;91.78;101730.13;5061591;28;20090;-84
2021/08/31 04:58:35;;;;;;;16.73;8.65;;;;;;;15.63;91.48;101732.31;5063422;28;20024;-83
2021/08/31 05:01:00;;;;;;;15.77;8.85;;;;;;;15.66;91.78;101737.22;5065010;28;20029;-83
2021/08/31 05:03:26;;;;;;;13.10;7.40;;;;;;;15.71;91.38;101739.94;5062509;28;20032;-83
2021/08/31 05:05:52;;;;;;;16.83;8.98;;;;;;;15.73;91.13;101736.16;5067508;28;20032;-82
2021/08/31 05:08:17;;;;;;;13.48;8.23;;;;;;;15.77;91.48;101735.38;5079771;28;20131;-83
2021/08/31 05:10:44;;;;;;;13.23;8.20;;;;;;;15.81;91.01;101735.72;5083551;28;21338;-83
2021/08/31 05:13:10;;;;;;;11.52;7.50;;;;;;;15.88;90.84;101741.69;5084990;28;20467;-85
2021/08/31 05:15:36;;;;;;;12.25;7.68;;;;;;;15.93;90.60;101742.53;5074751;28;20027;-85
2021/08/31 05:18:03;;;;;;;13.65;7.93;;;;;;;16.00;89.96;101742.34;5077117;28;20031;-84
2021/08/31 05:20:29;;;;;;;11.32;7.18;;;;;;;16.01;89.79;101736.66;5063507;28;20028;-83
2021/08/31 05:22:54;;;;;;;10.70;7.15;;;;;;;16.08;89.81;101741.81;5061362;28;20028;-83
2021/08/31 05:25:20;;;;;;;11.45;7.40;;;;;;;16.08;89.10;101746.44;5063830;28;20035;-83
2021/08/31 05:27:46;;;;;;;9.50;6.78;;;;;;;16.12;88.84;101744.81;5062208;28;20028;-83
2021/08/31 05:30:12;;;;;;;10.00;6.40;;;;;;;16.22;88.49;101744.91;5060159;28;20148;-84
2021/08/31 05:32:39;;;;;;;10.07;6.93;;;;;;;16.28;88.18;101743.84;5060270;28;20205;-84
2021/08/31 05:35:05;;;;;;;11.70;6.72;;;;;;;16.35;87.74;101741.72;5061274;28;20501;-83
2021/08/31 05:37:30;;;;;;;10.75;6.97;;;;;;;16.45;87.41;101739.06;5063906;28;20032;-83
2021/08/31 05:39:56;;;;;;;12.32;6.82;;;;;;;16.54;86.86;101737.50;5061553;28;20105;-85
2021/08/31 05:42:22;;;;;;;10.75;7.10;;;;;;;16.54;86.22;101745.63;5062464;28;20031;-83
2021/08/31 05:44:47;;;;;;;13.02;6.90;;;;;;;16.56;86.20;101738.06;5065120;28;20016;-84
2021/08/31 05:47:13;;;;;;;12.13;6.75;;;;;;;16.65;85.77;101742.94;5073423;28;20033;-85
2021/08/31 05:49:38;;;;;;;11.23;6.68;;;;;;;16.74;85.74;101738.69;5083809;28;20025;-84
2021/08/31 05:52:04;;;;;;;11.45;6.40;;;;;;;16.85;85.10;101740.34;5065154;28;20079;-84
2021/08/31 05:54:30;;;;;;;11.23;6.25;;;;;;;16.86;84.61;101742.78;5064577;28;20058;-84
2021/08/31 05:56:57;;;;;;;8.85;6.22;;;;;;;16.91;84.21;101744.72;5064054;28;20027;-83
2021/08/31 05:59:23;;;;;;;9.93;6.43;;;;;;;16.97;83.59;101738.22;5066817;28;20058;-84
2021/08/31 06:01:49;;;;;;;12.60;6.03;;;;;;;17.01;83.26;101747.44;5067066;28;20471;-83
2021/08/31 06:04:15;;;;;;;12.43;6.38;;;;;;;17.07;83.09;101751.78;5066975;28;20066;-83
2021/08/31 06:06:49;;;;;;;8.75;6.32;;;;;;;17.11;82.82;101747.47;5066038;28;20349;-84
2021/08/31 06:09:14;;;;;;;8.48;6.00;;;;;;;17.19;82.50;101760.47;5068395;28;20020;-84
2021/08/31 06:11:40;;;;;;;11.35;6.03;;;;;;;17.28;82.32;101762.66;5065955;28;20032;-84
2021/08/31 06:14:08;;;;;;;9.18;6.10;;;;;;;17.42;81.88;101764.59;5078814;28;20479;-84
2021/08/31 06:16:34;;;;;;;11.45;6.45;;;;;;;17.54;80.67;101761.59;5064513;28;20040;-83
2021/08/31 06:19:02;;;;;;;9.30;6.40;;;;;;;17.63;79.97;101760.00;5064056;28;20383;-83
2021/08/31 06:21:29;;;;;;;9.50;5.93;;;;;;;17.81;79.72;101758.69;5059687;28;20111;-84
2021/08/31 06:23:58;;;;;;;11.02;6.10;;;;;;;17.89;79.58;101762.72;5079453;28;20029;-84
2021/08/31 06:26:26;;;;;;;14.77;6.30;;;;;;;17.93;79.44;101766.50;5080740;28;20052;-85
2021/08/31 06:28:55;;;;;;;10.27;6.00;;;;;;;17.89;79.24;101765.44;5017592;28;1299904;-84
2021/08/31 06:31:20;;;;;;;10.88;5.82;;;;;;;17.93;79.01;101767.31;5064785;28;20044;-84
2021/08/31 06:33:46;;;;;;;7.32;5.35;;;;;;;18.27;78.30;101774.88;5062995;28;20029;-84
2021/08/31 06:36:15;;;;;;;8.80;5.70;;;;;;;18.28;77.57;101771.06;5063074;28;20036;-84
2021/08/31 06:38:44;;;;;;;10.85;6.22;;;;;;;18.34;77.37;101781.66;5065320;28;20111;-84
2021/08/31 06:41:09;;;;;;;9.10;5.68;;;;;;;18.31;77.58;101776.78;5061164;28;20024;-85
2021/08/31 06:43:35;;;;;;;12.65;6.22;;;;;;;18.23;77.06;101777.34;5060822;28;20020;-85
2021/08/31 06:46:00;;;;;;;8.63;5.85;;;;;;;18.28;76.71;101781.94;5060050;28;20121;-85
2021/08/31 06:48:26;;;;;;;9.23;6.05;;;;;;;18.31;76.95;101787.63;5056259;28;20024;-85
2021/08/31 06:50:51;;;;;;;9.05;6.00;;;;;;;18.35;77.03;101780.56;5061878;28;20044;-85
2021/08/31 06:53:17;;;;;;;8.07;5.55;;;;;;;18.33;77.44;101785.47;5056542;28;20024;-85
2021/08/31 06:55:42;;;;;;;11.60;6.22;;;;;;;18.27;77.36;101791.16;5056228;28;20478;-84
2021/08/31 06:58:08;;;;;;;9.25;5.78;;;;;;;18.38;77.16;101796.28;5060464;28;20032;-83
2021/08/31 07:00:34;;;;;;;8.52;5.82;;;;;;;18.44;77.38;101797.09;5063890;28;20040;-83
2021/08/31 07:03:00;;;;;;;10.23;5.75;;;;;;;18.60;76.59;101806.00;5063980;28;20272;-86
2021/08/31 07:05:25;;;;;;;9.13;5.60;;;;;;;18.77;75.62;101801.09;5057423;28;20040;-85
2021/08/31 07:07:52;;;;;;;9.07;5.75;;;;;;;18.82;74.98;101801.06;5059421;28;20122;-85
2021/08/31 07:10:18;;;;;;;10.18;6.07;;;;;;;18.90;74.92;101805.13;5058642;28;20077;-85
2021/08/31 07:12:43;;;;;;;9.85;6.20;;;;;;;18.85;75.05;101805.13;5058071;28;20085;-86
2021/08/31 07:15:10;;;;;;;7.28;5.20;;;;;;;18.87;74.72;101806.50;5058604;28;20425;-85
2021/08/31 07:17:36;;;;;;;10.98;5.28;;;;;;;18.82;74.48;101811.94;5058852;28;20704;-86
2021/08/31 07:20:02;;;;;;;10.27;5.25;;;;;;;18.84;74.50;101808.94;5062492;28;20090;-85
2021/08/31 07:22:28;;;;;;;9.82;5.60;;;;;;;18.96;74.34;101812.97;5059974;28;20025;-85
2021/08/31 07:24:53;;;;;;;9.43;5.35;;;;;;;18.93;74.60;101818.94;5060802;28;20029;-84
2021/08/31 07:27:19;;;;;;;9.27;5.38;;;;;;;19.10;74.17;101815.09;5063331;28;20035;-85
2021/08/31 07:29:45;;;;;;;9.60;5.65;;;;;;;19.11;72.89;101814.78;5059859;28;20479;-84
2021/08/31 07:32:10;;;;;;;8.77;5.20;;;;;;;18.99;72.13;101820.53;5074313;28;20027;-84
2021/08/31 07:34:38;;;;;;;6.93;5.15;;;;;;;18.86;73.33;101825.78;5057377;28;20058;-84
2021/08/31 07:37:05;;;;;;;8.05;5.22;;;;;;;18.65;74.04;101825.81;5062920;28;20032;-84
2021/08/31 07:39:31;;;;;;;10.82;5.60;;;;;;;18.65;74.25;101830.44;5058041;28;20039;-85
2021/08/31 07:41:57;;;;;;;8.20;5.68;;;;;;;18.57;74.72;101833.69;5059601;28;20181;-85
2021/08/31 07:44:23;;;;;;;8.27;5.82;;;;;;;18.54;74.17;101840.50;5059652;28;20074;-85
2021/08/31 07:46:50;;;;;;;11.30;6.10;;;;;;;18.36;74.84;101835.66;5059765;28;20067;-85
2021/08/31 07:49:16;;;;;;;10.43;5.50;;;;;;;18.40;75.15;101842.16;5060303;28;20028;-85
2021/08/31 07:51:43;;;;;;;11.98;5.30;;;;;;;18.42;75.18;101842.69;5056207;28;20025;-84
2021/08/31 07:54:09;;;;;;;8.85;5.15;;;;;;;18.52;74.81;101839.16;5072248;28;20112;-83
2021/08/31 07:56:35;;;;;;;10.50;5.72;;;;;;;18.56;74.26;101843.75;5062337;28;20077;-84
2021/08/31 07:59:01;;;;;;;8.70;5.60;;;;;;;18.62;74.39;101842.63;5059480;28;20428;-85
2021/08/31 08:01:27;;;;;;;11.35;5.70;;;;;;;18.66;73.98;101853.78;5049093;28;20025;-84
2021/08/31 08:03:52;;;;;;;10.70;4.95;;;;;;;18.93;73.33;101853.44;5053044;28;20024;-85
2021/08/31 08:06:18;;;;;;;8.65;5.43;;;;;;;18.99;72.73;101853.13;5069387;28;20387;-85
2021/08/31 08:08:45;;;;;;;8.70;5.03;;;;;;;19.11;72.58;101854.72;5059341;28;20051;-84
2021/08/31 08:11:11;;;;;;;10.23;5.32;;;;;;;19.14;72.70;101859.59;5056226;28;20028;-85
2021/08/31 08:13:36;;;;;;;6.65;5.10;;;;;;;19.24;72.37;101852.22;5059036;28;20486;-85
2021/08/31 08:16:02;;;;;;;7.13;5.03;;;;;;;19.23;71.97;101853.31;5057651;28;20036;-85
2021/08/31 08:18:28;;;;;;;9.30;5.43;;;;;;;19.23;71.51;101856.03;5071330;28;20132;-85
2021/08/31 08:20:53;;;;;;;9.50;4.63;;;;;;;19.35;71.24;101858.41;5063373;28;20614;-85
2021/08/31 08:23:19;;;;;;;7.93;5.35;;;;;;;19.56;70.75;101865.38;5056001;28;20029;-85
2021/08/31 08:25:45;;;;;;;8.13;5.43;;;;;;;19.82;69.77;101855.16;5058101;28;20060;-85
2021/08/31 08:28:10;;;;;;;8.07;5.25;;;;;;;20.07;69.20;101856.88;5059399;28;20472;-84
2021/08/31 08:30:35;;;;;;;9.38;5.25;;;;;;;20.20;68.72;101850.78;5055644;28;20024;-85
2021/08/31 08:33:02;;;;;;;8.88;4.78;;;;;;;20.04;68.46;101860.16;5057802;28;20035;-86
2021/08/31 08:35:27;;;;;;;8.65;4.88;;;;;;;20.14;69.07;101860.09;5049487;28;20017;-85
2021/08/31 08:37:53;;;;;;;8.07;5.30;;;;;;;20.39;68.57;101863.66;5058036;28;20363;-85
2021/08/31 08:40:19;;;;;;;9.90;5.20;;;;;;;20.30;68.45;101854.50;5059094;28;20187;-84
2021/08/31 08:42:44;;;;;;;9.65;5.80;;;;;;;20.25;67.86;101862.69;5059574;28;20050;-85
2021/08/31 08:45:10;;;;;;;8.00;4.53;;;;;;;20.23;67.61;101863.00;5058321;28;20048;-85
2021/08/31 08:47:36;;;;;;;8.18;4.47;;;;;;;20.20;66.83;101858.94;5055887;28;20286;-85
2021/08/31 08:50:03;;;;;;;8.70;4.93;;;;;;;20.09;66.43;101868.28;5060660;28;20024;-85
2021/08/31 08:52:28;;;;;;;6.13;4.90;;;;;;;19.97;66.98;101867.03;5058519;28;20029;-86
2021/08/31 08:54:54;;;;;;;6.88;4.95;;;;;;;20.08;67.01;101865.84;5057944;28;20025;-85
2021/08/31 08:57:26;;;;;;;7.70;4.70;;;;;;;20.12;66.93;101865.00;5056949;28;20025;-85
2021/08/31 08:59:51;;;;;;;8.23;5.28;;;;;;;19.98;67.59;101869.47;5057226;28;20410;-85
2021/08/31 09:02:35;;;;;;;11.93;5.63;;;;;;;19.97;67.52;101872.47;5060182;28;20035;-84
2021/08/31 09:05:02;;;;;;;6.53;5.23;;;;;;;19.84;68.34;101879.34;5051024;28;20117;-85
2021/08/31 09:07:28;;;;;;;7.13;4.93;;;;;;;19.86;68.14;101874.44;5053196;28;20473;-85
2021/08/31 09:10:18;;;;;;;7.90;5.22;;;;;;;19.91;67.32;101875.22;5052938;28;20414;-84
2021/08/31 09:12:52;;;;;;;7.93;5.28;;;;;;;19.88;67.25;101888.56;5058802;28;20056;-85
2021/08/31 09:15:22;;;;;;;9.43;5.63;;;;;;;19.76;67.11;101888.94;5056230;28;20490;-85
2021/08/31 09:18:06;;;;;;;7.63;5.07;;;;;;;19.72;67.80;101892.47;5053141;28;20216;-85
2021/08/31 09:20:46;;;;;;;7.97;5.20;;;;;;;19.68;67.71;101891.44;5052411;28;20063;-84
2021/08/31 09:23:18;;;;;;;10.20;4.93;;;;;;;19.44;68.59;101885.81;5052666;28;20045;-85
2021/08/31 09:25:49;;;;;;;7.80;5.53;;;;;;;19.29;68.30;101878.56;5057366;28;20505;-85
2021/08/31 09:28:30;;;;;;;8.73;5.47;;;;;;;19.23;69.10;101879.69;5060649;28;20428;-84
2021/08/31 09:31:23;;;;;;;8.13;5.70;;;;;;;19.43;69.26;101879.59;5064764;28;20571;-85
2021/08/31 09:33:50;;;;;;;11.82;5.57;;;;;;;19.50;68.90;101885.50;5060877;28;20024;-85
2021/08/31 09:36:22;;;;;;;8.18;5.50;;;;;;;19.56;68.68;101884.41;5064379;28;20674;-85
2021/08/31 09:38:57;;;;;;;9.85;5.57;;;;;;;19.57;68.07;101883.34;5058689;28;20033;-85
2021/08/31 09:41:38;;;;;;;8.85;5.07;;;;;;;19.40;67.85;101873.91;5067530;28;20042;-85
2021/08/31 09:44:05;;;;;;;8.80;5.20;;;;;;;19.21;69.21;101882.69;5078868;28;20032;-85
2021/08/31 09:46:57;;;;;;;8.13;4.95;;;;;;;19.21;69.63;101881.84;5051765;28;20025;-85
2021/08/31 09:49:34;;;;;;;9.18;5.72;;;;;;;19.28;69.91;101890.53;5081209;28;20025;-85
2021/08/31 09:52:03;;;;;;;9.43;5.45;;;;;;;19.24;69.74;101897.59;5062360;28;20052;-85
2021/08/31 09:54:30;;;;;;;7.88;5.03;;;;;;;19.29;69.80;101895.69;5053071;28;20079;-85
2021/08/31 09:56:55;;;;;;;10.88;5.35;;;;;;;19.42;69.69;101896.97;5063429;28;20430;-85
2021/08/31 09:59:23;;;;;;;8.30;5.15;;;;;;;19.40;69.48;101903.78;5079393;28;20044;-85
2021/08/31 10:01:52;;;;;;;9.18;6.07;;;;;;;19.36;69.41;101906.22;5057151;28;20036;-85
2021/08/31 10:04:18;;;;;;;7.82;5.55;;;;;;;19.32;69.37;101905.97;5061890;28;20035;-85
2021/08/31 10:06:44;;;;;;;9.38;5.57;;;;;;;19.31;69.39;101907.06;5061435;28;20029;-85
2021/08/31 10:09:10;;;;;;;8.95;5.40;;;;;;;19.32;69.25;101895.13;5078988;28;20493;-84
2021/08/31 10:11:37;;;;;;;8.45;5.40;;;;;;;19.27;69.55;101906.00;5057690;28;20029;-85
2021/08/31 10:14:04;;;;;;;7.72;5.00;;;;;;;19.38;69.83;101916.81;5055890;28;20478;-85
2021/08/31 10:16:32;;;;;;;8.13;5.10;;;;;;;19.36;69.27;101916.28;5061625;28;20044;-85
2021/08/31 10:18:57;;;;;;;11.02;5.82;;;;;;;19.57;69.07;101917.88;5065039;28;20397;-85
2021/08/31 10:21:23;;;;;;;8.48;5.40;;;;;;;19.53;68.39;101928.44;5060183;28;20032;-85
2021/08/31 10:23:50;;;;;;;7.95;4.93;;;;;;;19.68;68.27;101929.50;5058335;28;20043;-84
2021/08/31 10:26:33;;;;;;;7.78;4.72;;;;;;;19.68;67.94;101929.50;5063456;28;20024;-85
2021/08/31 10:29:14;;;;;;;8.68;5.53;;;;;;;19.55;67.74;101929.00;5057213;28;20028;-85
2021/08/31 10:31:41;;;;;;;9.40;5.63;;;;;;;19.67;67.49;101933.31;5062723;28;20036;-85
2021/08/31 10:34:32;;;;;;;9.88;5.75;;;;;;;19.76;67.70;101931.63;5056982;28;20071;-85
2021/08/31 10:37:04;;;;;;;8.57;5.20;;;;;;;19.92;67.21;101938.56;5057300;28;20057;-85
2021/08/31 10:39:51;;;;;;;7.68;5.07;;;;;;;20.20;67.02;101945.19;5064099;28;20043;-85
2021/08/31 10:42:28;;;;;;;10.75;5.07;;;;;;;20.21;65.73;101939.47;5060488;28;20036;-85
2021/08/31 10:44:57;;;;;;;8.30;5.35;;;;;;;20.01;65.60;101941.53;5059499;28;20028;-85
2021/08/31 10:47:37;;;;;;;7.57;5.80;;;;;;;20.01;66.09;101947.78;5061822;28;20025;-85
2021/08/31 10:50:05;;;;;;;11.15;5.32;;;;;;;20.03;66.13;101937.44;5057600;28;20039;-85
2021/08/31 10:52:38;;;;;;;8.60;5.53;;;;;;;20.03;66.46;101945.59;5059734;28;20029;-85
2021/08/31 10:55:05;;;;;;;9.38;5.15;;;;;;;20.07;66.40;101954.81;5064602;28;20047;-85
2021/08/31 10:57:37;;;;;;;6.43;4.90;;;;;;;20.36;65.30;101946.72;5061123;28;20025;-85
2021/08/31 11:00:03;;;;;;;9.68;5.60;;;;;;;20.84;64.25;101952.31;5060020;28;20179;-85
2021/08/31 11:02:51;;;;;;;11.57;5.32;;;;;;;20.97;63.08;101945.34;5052244;28;20104;-85
2021/08/31 11:05:25;;;;;;;7.72;4.50;;;;;;;20.87;62.94;101956.38;5056930;28;20036;-85
2021/08/31 11:07:59;;;;;;;8.77;5.35;;;;;;;20.72;63.33;101957.31;5059424;28;20065;-85
2021/08/31 11:10:36;;;;;;;8.27;4.60;;;;;;;20.76;63.25;101952.91;5077069;22;20021;-47
2021/08/31 11:13:11;;;;;;;6.43;4.53;;;;;;;20.58;63.70;101965.34;5037322;28;20037;-46
2021/08/31 11:15:37;;;;;;;;;;;;;;;20.40;63.28;101971.44;5038803;28;20253;-46
2021/08/31 11:18:08;;;;;;;8.43;4.32;;;;;;;20.48;62.99;101965.44;5037064;28;19928;-46
2021/08/31 11:20:34;;;;;;;7.50;4.88;;;;;;;20.44;63.54;101964.34;5037159;28;20051;-46
2021/08/31 11:23:03;;;;;;;8.77;5.85;;;;;;;20.79;63.27;101966.75;5039658;28;20025;-45
2021/08/31 11:25:40;;;;;;;11.00;5.97;;;;;;;20.69;62.21;101961.44;5038519;28;20474;-46
2021/08/31 11:28:16;;;;;;;9.38;5.45;;;;;;;21.08;62.33;101965.94;5038735;28;20123;-47
2021/08/31 11:30:52;;;;;;;7.85;5.13;;;;;;;21.05;62.16;101970.06;5037091;28;20036;-47